sensor_id;sensor_type;location;lat;lon;timestamp;P1;durP1;ratioP1;P2;durP2;ratioP2
18983;SDS011;9626;52.552;13.436;2022-10-16T00:00:54;3.60;;;3.30;;
18983;SDS011;9626;52.552;13.436;2022-10-16T00:03:19;2.90;;;2.40;;
18983;SDS011;9626;52.552;13.436;2022-10-16T00:05:45;4.53;;;2.57;;
18983;SDS011;9626;52.552;13.436;2022-10-16T00:08:10;3.07;;;2.10;;
18983;SDS011;9626;52.552;13.436;2022-10-16T00:10:37;3.23;;;2.17;;
18983;SDS011;9626;52.552;13.436;2022-10-16T00:13:03;3.93;;;2.30;;
18983;SDS011;9626;52.552;13.436;2022-10-16T00:15:29;4.53;;;2.60;;
18983;SDS011;9626;52.552;13.436;2022-10-16T00:17:57;3.73;;;2.40;;
18983;SDS011;9626;52.552;13.436;2022-10-16T00:20:23;2.90;;;2.60;;
18983;SDS011;9626;52.552;13.436;2022-10-16T00:22:48;2.53;;;1.90;;
18983;SDS011;9626;52.552;13.436;2022-10-16T00:25:14;2.67;;;2.43;;
18983;SDS011;9626;52.552;13.436;2022-10-16T00:27:39;2.63;;;1.70;;
18983;SDS011;9626;52.552;13.436;2022-10-16T00:30:05;1.87;;;1.73;;
18983;SDS011;9626;52.552;13.436;2022-10-16T00:32:33;2.10;;;1.90;;
18983;SDS011;9626;52.552;13.436;2022-10-16T00:34:58;2.40;;;1.70;;
18983;SDS011;9626;52.552;13.436;2022-10-16T00:37:24;2.50;;;1.30;;
18983;SDS011;9626;52.552;13.436;2022-10-16T00:39:49;2.30;;;2.03;;
18983;SDS011;9626;52.552;13.436;2022-10-16T00:45:06;3.87;;;1.80;;
18983;SDS011;9626;52.552;13.436;2022-10-16T00:47:34;1.50;;;1.40;;
18983;SDS011;9626;52.552;13.436;2022-10-16T00:50:05;1.83;;;1.67;;
18983;SDS011;9626;52.552;13.436;2022-10-16T00:52:39;2.30;;;1.50;;
18983;SDS011;9626;52.552;13.436;2022-10-16T00:55:08;12.90;;;4.37;;
18983;SDS011;9626;52.552;13.436;2022-10-16T00:57:34;3.17;;;1.57;;
18983;SDS011;9626;52.552;13.436;2022-10-16T01:00:00;3.40;;;2.27;;
18983;SDS011;9626;52.552;13.436;2022-10-16T01:02:27;4.23;;;3.03;;
18983;SDS011;9626;52.552;13.436;2022-10-16T01:04:53;1.50;;;1.40;;
18983;SDS011;9626;52.552;13.436;2022-10-16T01:10:30;2.83;;;1.90;;
18983;SDS011;9626;52.552;13.436;2022-10-16T01:13:06;1.53;;;1.40;;
18983;SDS011;9626;52.552;13.436;2022-10-16T01:18:05;2.00;;;1.50;;
18983;SDS011;9626;52.552;13.436;2022-10-16T01:20:43;1.73;;;1.37;;
18983;SDS011;9626;52.552;13.436;2022-10-16T01:26:02;1.27;;;1.17;;
18983;SDS011;9626;52.552;13.436;2022-10-16T01:28:53;2.27;;;1.33;;
18983;SDS011;9626;52.552;13.436;2022-10-16T01:31:24;2.10;;;1.83;;
18983;SDS011;9626;52.552;13.436;2022-10-16T01:34:00;1.70;;;1.17;;
18983;SDS011;9626;52.552;13.436;2022-10-16T01:36:52;1.53;;;1.33;;
18983;SDS011;9626;52.552;13.436;2022-10-16T01:39:22;2.17;;;1.40;;
18983;SDS011;9626;52.552;13.436;2022-10-16T01:41:55;1.83;;;1.20;;
18983;SDS011;9626;52.552;13.436;2022-10-16T01:44:28;3.17;;;1.50;;
18983;SDS011;9626;52.552;13.436;2022-10-16T01:46:56;3.03;;;1.50;;
18983;SDS011;9626;52.552;13.436;2022-10-16T01:49:23;1.33;;;1.23;;
18983;SDS011;9626;52.552;13.436;2022-10-16T01:51:52;1.47;;;1.30;;
18983;SDS011;9626;52.552;13.436;2022-10-16T01:54:21;2.00;;;1.40;;
18983;SDS011;9626;52.552;13.436;2022-10-16T01:56:50;2.60;;;1.40;;
18983;SDS011;9626;52.552;13.436;2022-10-16T01:59:17;2.50;;;1.30;;
18983;SDS011;9626;52.552;13.436;2022-10-16T02:01:50;2.73;;;1.20;;
18983;SDS011;9626;52.552;13.436;2022-10-16T02:04:30;1.77;;;1.40;;
18983;SDS011;9626;52.552;13.436;2022-10-16T02:06:59;2.17;;;1.20;;
18983;SDS011;9626;52.552;13.436;2022-10-16T02:09:25;1.50;;;1.40;;
18983;SDS011;9626;52.552;13.436;2022-10-16T02:11:52;1.47;;;1.30;;
18983;SDS011;9626;52.552;13.436;2022-10-16T02:14:22;1.33;;;1.23;;
18983;SDS011;9626;52.552;13.436;2022-10-16T02:16:49;3.40;;;1.40;;
18983;SDS011;9626;52.552;13.436;2022-10-16T02:19:16;1.30;;;1.20;;
18983;SDS011;9626;52.552;13.436;2022-10-16T02:21:49;3.10;;;1.20;;
18983;SDS011;9626;52.552;13.436;2022-10-16T02:24:21;1.20;;;1.10;;
18983;SDS011;9626;52.552;13.436;2022-10-16T02:29:49;3.60;;;1.30;;
18983;SDS011;9626;52.552;13.436;2022-10-16T02:32:20;1.23;;;1.13;;
18983;SDS011;9626;52.552;13.436;2022-10-16T02:34:48;1.10;;;1.10;;
18983;SDS011;9626;52.552;13.436;2022-10-16T02:37:33;2.30;;;1.33;;
18983;SDS011;9626;52.552;13.436;2022-10-16T02:40:00;1.27;;;1.17;;
18983;SDS011;9626;52.552;13.436;2022-10-16T02:42:28;3.70;;;1.43;;
18983;SDS011;9626;52.552;13.436;2022-10-16T02:45:05;4.20;;;1.20;;
18983;SDS011;9626;52.552;13.436;2022-10-16T02:47:31;1.37;;;1.10;;
18983;SDS011;9626;52.552;13.436;2022-10-16T02:49:57;2.27;;;1.43;;
18983;SDS011;9626;52.552;13.436;2022-10-16T02:52:22;1.37;;;1.17;;
18983;SDS011;9626;52.552;13.436;2022-10-16T02:54:48;2.60;;;1.40;;
18983;SDS011;9626;52.552;13.436;2022-10-16T02:57:14;1.30;;;1.20;;
18983;SDS011;9626;52.552;13.436;2022-10-16T02:59:39;2.00;;;1.10;;
18983;SDS011;9626;52.552;13.436;2022-10-16T03:02:05;1.37;;;1.13;;
18983;SDS011;9626;52.552;13.436;2022-10-16T03:04:30;2.20;;;1.37;;
18983;SDS011;9626;52.552;13.436;2022-10-16T03:06:56;1.37;;;1.20;;
18983;SDS011;9626;52.552;13.436;2022-10-16T03:09:21;1.87;;;1.30;;
18983;SDS011;9626;52.552;13.436;2022-10-16T03:11:47;3.33;;;1.37;;
18983;SDS011;9626;52.552;13.436;2022-10-16T03:14:12;2.13;;;1.33;;
18983;SDS011;9626;52.552;13.436;2022-10-16T03:16:38;1.60;;;1.50;;
18983;SDS011;9626;52.552;13.436;2022-10-16T03:19:03;2.70;;;1.17;;
18983;SDS011;9626;52.552;13.436;2022-10-16T03:21:29;1.30;;;1.23;;
18983;SDS011;9626;52.552;13.436;2022-10-16T03:23:54;1.73;;;1.40;;
18983;SDS011;9626;52.552;13.436;2022-10-16T03:26:20;1.40;;;1.13;;
18983;SDS011;9626;52.552;13.436;2022-10-16T03:28:46;3.53;;;1.40;;
18983;SDS011;9626;52.552;13.436;2022-10-16T03:31:11;1.47;;;1.30;;
18983;SDS011;9626;52.552;13.436;2022-10-16T03:33:37;1.40;;;1.30;;
18983;SDS011;9626;52.552;13.436;2022-10-16T03:36:02;1.90;;;1.50;;
18983;SDS011;9626;52.552;13.436;2022-10-16T03:38:28;1.47;;;1.37;;
18983;SDS011;9626;52.552;13.436;2022-10-16T03:40:53;1.30;;;1.20;;
18983;SDS011;9626;52.552;13.436;2022-10-16T03:43:19;2.07;;;1.23;;
18983;SDS011;9626;52.552;13.436;2022-10-16T03:45:44;1.40;;;1.30;;
18983;SDS011;9626;52.552;13.436;2022-10-16T03:48:10;1.50;;;1.40;;
18983;SDS011;9626;52.552;13.436;2022-10-16T03:50:36;2.90;;;1.60;;
18983;SDS011;9626;52.552;13.436;2022-10-16T03:53:02;1.40;;;1.30;;
18983;SDS011;9626;52.552;13.436;2022-10-16T03:55:28;2.57;;;1.70;;
18983;SDS011;9626;52.552;13.436;2022-10-16T03:57:53;4.40;;;1.80;;
18983;SDS011;9626;52.552;13.436;2022-10-16T04:00:19;1.70;;;1.40;;
18983;SDS011;9626;52.552;13.436;2022-10-16T04:02:44;1.63;;;1.53;;
18983;SDS011;9626;52.552;13.436;2022-10-16T04:05:10;1.30;;;1.20;;
18983;SDS011;9626;52.552;13.436;2022-10-16T04:07:35;1.70;;;1.40;;
18983;SDS011;9626;52.552;13.436;2022-10-16T04:10:01;1.70;;;1.50;;
18983;SDS011;9626;52.552;13.436;2022-10-16T04:12:27;2.63;;;1.40;;
18983;SDS011;9626;52.552;13.436;2022-10-16T04:14:52;2.60;;;1.40;;
18983;SDS011;9626;52.552;13.436;2022-10-16T04:17:18;1.70;;;1.50;;
18983;SDS011;9626;52.552;13.436;2022-10-16T04:19:44;2.57;;;1.60;;
18983;SDS011;9626;52.552;13.436;2022-10-16T04:22:09;1.60;;;1.50;;
18983;SDS011;9626;52.552;13.436;2022-10-16T04:24:35;1.93;;;1.50;;
18983;SDS011;9626;52.552;13.436;2022-10-16T04:27:00;4.03;;;1.50;;
18983;SDS011;9626;52.552;13.436;2022-10-16T04:29:26;1.73;;;1.63;;
18983;SDS011;9626;52.552;13.436;2022-10-16T04:31:51;1.70;;;1.60;;
18983;SDS011;9626;52.552;13.436;2022-10-16T04:34:17;1.50;;;1.30;;
18983;SDS011;9626;52.552;13.436;2022-10-16T04:36:42;2.60;;;1.33;;
18983;SDS011;9626;52.552;13.436;2022-10-16T04:39:08;1.80;;;1.70;;
18983;SDS011;9626;52.552;13.436;2022-10-16T04:41:33;1.87;;;1.60;;
18983;SDS011;9626;52.552;13.436;2022-10-16T04:43:59;3.70;;;1.57;;
18983;SDS011;9626;52.552;13.436;2022-10-16T04:46:24;1.77;;;1.67;;
18983;SDS011;9626;52.552;13.436;2022-10-16T04:48:50;2.13;;;1.67;;
18983;SDS011;9626;52.552;13.436;2022-10-16T04:51:15;2.60;;;1.60;;
18983;SDS011;9626;52.552;13.436;2022-10-16T04:53:41;2.10;;;1.70;;
18983;SDS011;9626;52.552;13.436;2022-10-16T04:56:07;2.43;;;1.97;;
18983;SDS011;9626;52.552;13.436;2022-10-16T04:58:32;3.00;;;1.90;;
18983;SDS011;9626;52.552;13.436;2022-10-16T05:00:58;15.40;;;7.40;;
18983;SDS011;9626;52.552;13.436;2022-10-16T05:03:23;10.80;;;4.87;;
18983;SDS011;9626;52.552;13.436;2022-10-16T05:05:49;21.50;;;10.27;;
18983;SDS011;9626;52.552;13.436;2022-10-16T05:08:15;17.93;;;9.23;;
18983;SDS011;9626;52.552;13.436;2022-10-16T05:10:41;11.63;;;6.73;;
18983;SDS011;9626;52.552;13.436;2022-10-16T05:13:08;4.60;;;3.57;;
18983;SDS011;9626;52.552;13.436;2022-10-16T05:15:36;9.73;;;6.23;;
18983;SDS011;9626;52.552;13.436;2022-10-16T05:18:02;5.17;;;2.10;;
18983;SDS011;9626;52.552;13.436;2022-10-16T05:20:27;9.63;;;5.47;;
18983;SDS011;9626;52.552;13.436;2022-10-16T05:22:53;9.27;;;5.03;;
18983;SDS011;9626;52.552;13.436;2022-10-16T05:25:19;7.53;;;4.03;;
18983;SDS011;9626;52.552;13.436;2022-10-16T05:28:02;8.27;;;5.00;;
18983;SDS011;9626;52.552;13.436;2022-10-16T05:30:28;5.47;;;3.60;;
18983;SDS011;9626;52.552;13.436;2022-10-16T05:32:53;8.67;;;5.13;;
18983;SDS011;9626;52.552;13.436;2022-10-16T05:35:19;5.80;;;3.00;;
18983;SDS011;9626;52.552;13.436;2022-10-16T05:37:45;5.87;;;3.53;;
18983;SDS011;9626;52.552;13.436;2022-10-16T05:40:10;3.97;;;2.77;;
18983;SDS011;9626;52.552;13.436;2022-10-16T05:42:38;3.37;;;2.40;;
18983;SDS011;9626;52.552;13.436;2022-10-16T05:45:04;3.10;;;2.63;;
18983;SDS011;9626;52.552;13.436;2022-10-16T05:47:31;2.97;;;2.57;;
18983;SDS011;9626;52.552;13.436;2022-10-16T05:49:56;2.97;;;2.40;;
18983;SDS011;9626;52.552;13.436;2022-10-16T05:52:22;5.13;;;2.17;;
18983;SDS011;9626;52.552;13.436;2022-10-16T05:54:47;5.80;;;3.23;;
18983;SDS011;9626;52.552;13.436;2022-10-16T05:57:13;5.20;;;2.97;;
18983;SDS011;9626;52.552;13.436;2022-10-16T05:59:38;4.77;;;2.23;;
18983;SDS011;9626;52.552;13.436;2022-10-16T06:02:04;6.30;;;2.50;;
18983;SDS011;9626;52.552;13.436;2022-10-16T06:04:29;8.47;;;4.53;;
18983;SDS011;9626;52.552;13.436;2022-10-16T06:06:57;6.50;;;4.13;;
18983;SDS011;9626;52.552;13.436;2022-10-16T06:09:25;10.53;;;8.53;;
18983;SDS011;9626;52.552;13.436;2022-10-16T06:11:51;10.03;;;7.57;;
18983;SDS011;9626;52.552;13.436;2022-10-16T06:14:16;3.87;;;2.97;;
18983;SDS011;9626;52.552;13.436;2022-10-16T06:16:42;6.03;;;3.60;;
18983;SDS011;9626;52.552;13.436;2022-10-16T06:19:07;2.90;;;2.60;;
18983;SDS011;9626;52.552;13.436;2022-10-16T06:21:34;6.53;;;3.10;;
18983;SDS011;9626;52.552;13.436;2022-10-16T06:24:00;4.33;;;3.30;;
18983;SDS011;9626;52.552;13.436;2022-10-16T06:26:26;5.47;;;3.67;;
18983;SDS011;9626;52.552;13.436;2022-10-16T06:28:54;5.47;;;2.73;;
18983;SDS011;9626;52.552;13.436;2022-10-16T06:31:20;3.53;;;2.03;;
18983;SDS011;9626;52.552;13.436;2022-10-16T06:33:49;2.70;;;2.10;;
18983;SDS011;9626;52.552;13.436;2022-10-16T06:36:16;2.30;;;2.10;;
18983;SDS011;9626;52.552;13.436;2022-10-16T06:38:42;2.97;;;2.47;;
18983;SDS011;9626;52.552;13.436;2022-10-16T06:41:12;3.50;;;2.70;;
18983;SDS011;9626;52.552;13.436;2022-10-16T06:43:38;3.70;;;2.53;;
18983;SDS011;9626;52.552;13.436;2022-10-16T06:46:05;2.40;;;2.20;;
18983;SDS011;9626;52.552;13.436;2022-10-16T06:48:33;3.13;;;2.10;;
18983;SDS011;9626;52.552;13.436;2022-10-16T06:51:01;3.57;;;1.97;;
18983;SDS011;9626;52.552;13.436;2022-10-16T06:53:28;2.97;;;2.50;;
18983;SDS011;9626;52.552;13.436;2022-10-16T06:55:55;2.27;;;2.07;;
18983;SDS011;9626;52.552;13.436;2022-10-16T06:58:21;3.90;;;2.00;;
18983;SDS011;9626;52.552;13.436;2022-10-16T07:00:47;2.87;;;2.57;;
18983;SDS011;9626;52.552;13.436;2022-10-16T07:03:12;3.07;;;2.13;;
18983;SDS011;9626;52.552;13.436;2022-10-16T07:05:39;4.47;;;2.70;;
18983;SDS011;9626;52.552;13.436;2022-10-16T07:08:08;5.07;;;2.70;;
18983;SDS011;9626;52.552;13.436;2022-10-16T07:10:34;2.53;;;2.33;;
18983;SDS011;9626;52.552;13.436;2022-10-16T07:13:00;2.40;;;2.00;;
18983;SDS011;9626;52.552;13.436;2022-10-16T07:15:27;3.03;;;2.17;;
18983;SDS011;9626;52.552;13.436;2022-10-16T07:17:53;4.00;;;1.93;;
18983;SDS011;9626;52.552;13.436;2022-10-16T07:20:19;4.93;;;1.80;;
18983;SDS011;9626;52.552;13.436;2022-10-16T07:22:44;2.10;;;1.90;;
18983;SDS011;9626;52.552;13.436;2022-10-16T07:25:10;2.07;;;1.80;;
18983;SDS011;9626;52.552;13.436;2022-10-16T07:27:36;2.40;;;1.97;;
18983;SDS011;9626;52.552;13.436;2022-10-16T07:30:03;2.03;;;1.40;;
18983;SDS011;9626;52.552;13.436;2022-10-16T07:32:29;2.27;;;1.80;;
18983;SDS011;9626;52.552;13.436;2022-10-16T07:34:54;3.47;;;1.80;;
18983;SDS011;9626;52.552;13.436;2022-10-16T07:37:20;1.50;;;1.40;;
18983;SDS011;9626;52.552;13.436;2022-10-16T07:39:46;1.53;;;1.43;;
18983;SDS011;9626;52.552;13.436;2022-10-16T07:42:12;2.10;;;1.50;;
18983;SDS011;9626;52.552;13.436;2022-10-16T07:44:37;1.90;;;1.43;;
18983;SDS011;9626;52.552;13.436;2022-10-16T07:47:03;2.73;;;1.70;;
18983;SDS011;9626;52.552;13.436;2022-10-16T07:49:28;2.93;;;1.80;;
18983;SDS011;9626;52.552;13.436;2022-10-16T07:51:54;2.83;;;2.13;;
18983;SDS011;9626;52.552;13.436;2022-10-16T07:54:19;5.13;;;2.13;;
18983;SDS011;9626;52.552;13.436;2022-10-16T07:56:45;3.63;;;1.80;;
18983;SDS011;9626;52.552;13.436;2022-10-16T07:59:10;3.60;;;1.80;;
18983;SDS011;9626;52.552;13.436;2022-10-16T08:01:36;2.40;;;1.60;;
18983;SDS011;9626;52.552;13.436;2022-10-16T08:04:01;1.90;;;1.60;;
18983;SDS011;9626;52.552;13.436;2022-10-16T08:06:27;4.83;;;1.50;;
18983;SDS011;9626;52.552;13.436;2022-10-16T08:08:52;1.70;;;1.47;;
18983;SDS011;9626;52.552;13.436;2022-10-16T08:11:18;3.83;;;2.00;;
18983;SDS011;9626;52.552;13.436;2022-10-16T08:13:44;2.87;;;1.40;;
18983;SDS011;9626;52.552;13.436;2022-10-16T08:16:09;1.40;;;1.30;;
18983;SDS011;9626;52.552;13.436;2022-10-16T08:18:37;5.17;;;1.43;;
18983;SDS011;9626;52.552;13.436;2022-10-16T08:21:04;3.60;;;1.50;;
18983;SDS011;9626;52.552;13.436;2022-10-16T08:23:30;2.47;;;1.30;;
18983;SDS011;9626;52.552;13.436;2022-10-16T08:26:00;2.30;;;2.10;;
18983;SDS011;9626;52.552;13.436;2022-10-16T08:28:28;1.90;;;1.70;;
18983;SDS011;9626;52.552;13.436;2022-10-16T08:30:54;1.47;;;1.37;;
18983;SDS011;9626;52.552;13.436;2022-10-16T08:33:21;2.60;;;1.23;;
18983;SDS011;9626;52.552;13.436;2022-10-16T08:35:50;2.80;;;1.37;;
18983;SDS011;9626;52.552;13.436;2022-10-16T08:38:17;2.70;;;1.60;;
18983;SDS011;9626;52.552;13.436;2022-10-16T08:40:43;3.20;;;1.23;;
18983;SDS011;9626;52.552;13.436;2022-10-16T08:43:17;3.87;;;1.50;;
18983;SDS011;9626;52.552;13.436;2022-10-16T08:51:06;3.53;;;1.27;;
18983;SDS011;9626;52.552;13.436;2022-10-16T08:53:40;3.83;;;1.47;;
18983;SDS011;9626;52.552;13.436;2022-10-16T08:56:10;3.03;;;1.57;;
18983;SDS011;9626;52.552;13.436;2022-10-16T08:58:35;1.47;;;1.37;;
18983;SDS011;9626;52.552;13.436;2022-10-16T09:01:02;1.50;;;1.40;;
18983;SDS011;9626;52.552;13.436;2022-10-16T09:22:53;3.07;;;1.40;;
18983;SDS011;9626;52.552;13.436;2022-10-16T09:25:33;1.60;;;1.50;;
18983;SDS011;9626;52.552;13.436;2022-10-16T09:28:00;1.07;;;1.07;;
18983;SDS011;9626;52.552;13.436;2022-10-16T09:30:26;3.33;;;1.20;;
18983;SDS011;9626;52.552;13.436;2022-10-16T09:32:54;1.50;;;1.40;;
18983;SDS011;9626;52.552;13.436;2022-10-16T09:35:24;2.27;;;1.13;;
18983;SDS011;9626;52.552;13.436;2022-10-16T09:37:56;1.30;;;1.17;;
18983;SDS011;9626;52.552;13.436;2022-10-16T09:40:29;1.00;;;1.00;;
18983;SDS011;9626;52.552;13.436;2022-10-16T09:43:01;1.63;;;1.10;;
18983;SDS011;9626;52.552;13.436;2022-10-16T09:45:27;2.37;;;1.27;;
18983;SDS011;9626;52.552;13.436;2022-10-16T09:47:53;1.70;;;1.20;;
18983;SDS011;9626;52.552;13.436;2022-10-16T09:50:22;2.53;;;1.40;;
18983;SDS011;9626;52.552;13.436;2022-10-16T09:53:06;1.73;;;0.97;;
18983;SDS011;9626;52.552;13.436;2022-10-16T09:55:47;2.20;;;1.07;;
18983;SDS011;9626;52.552;13.436;2022-10-16T09:58:13;3.03;;;0.87;;
18983;SDS011;9626;52.552;13.436;2022-10-16T10:00:39;2.40;;;1.03;;
18983;SDS011;9626;52.552;13.436;2022-10-16T10:03:10;0.80;;;0.80;;
18983;SDS011;9626;52.552;13.436;2022-10-16T10:05:37;1.43;;;1.17;;
18983;SDS011;9626;52.552;13.436;2022-10-16T10:08:05;3.43;;;1.50;;
18983;SDS011;9626;52.552;13.436;2022-10-16T10:10:37;1.20;;;1.00;;
18983;SDS011;9626;52.552;13.436;2022-10-16T10:13:17;1.83;;;1.17;;
18983;SDS011;9626;52.552;13.436;2022-10-16T10:15:45;1.20;;;1.00;;
18983;SDS011;9626;52.552;13.436;2022-10-16T10:18:16;3.10;;;0.97;;
18983;SDS011;9626;52.552;13.436;2022-10-16T10:20:57;2.90;;;1.97;;
18983;SDS011;9626;52.552;13.436;2022-10-16T10:23:27;1.70;;;0.90;;
18983;SDS011;9626;52.552;13.436;2022-10-16T10:26:14;1.00;;;0.97;;
18983;SDS011;9626;52.552;13.436;2022-10-16T10:37:02;1.73;;;0.80;;
18983;SDS011;9626;52.552;13.436;2022-10-16T10:40:22;0.80;;;0.80;;
18983;SDS011;9626;52.552;13.436;2022-10-16T10:42:44;0.80;;;0.80;;
18983;SDS011;9626;52.552;13.436;2022-10-16T10:45:28;2.97;;;1.10;;
18983;SDS011;9626;52.552;13.436;2022-10-16T10:51:01;1.23;;;0.90;;
18983;SDS011;9626;52.552;13.436;2022-10-16T11:02:13;2.17;;;0.80;;
18983;SDS011;9626;52.552;13.436;2022-10-16T11:07:34;1.53;;;1.10;;
18983;SDS011;9626;52.552;13.436;2022-10-16T11:10:08;1.33;;;0.90;;
18983;SDS011;9626;52.552;13.436;2022-10-16T11:12:42;0.70;;;0.70;;
18983;SDS011;9626;52.552;13.436;2022-10-16T11:15:17;4.03;;;0.90;;
18983;SDS011;9626;52.552;13.436;2022-10-16T11:20:34;1.60;;;1.00;;
18983;SDS011;9626;52.552;13.436;2022-10-16T11:25:43;3.13;;;0.95;;
18983;SDS011;9626;52.552;13.436;2022-10-16T11:30:54;0.73;;;0.70;;
18983;SDS011;9626;52.552;13.436;2022-10-16T11:41:55;2.37;;;0.80;;
18983;SDS011;9626;52.552;13.436;2022-10-16T11:53:22;3.37;;;0.67;;
18983;SDS011;9626;52.552;13.436;2022-10-16T11:55:55;1.73;;;0.70;;
18983;SDS011;9626;52.552;13.436;2022-10-16T12:03:47;1.47;;;0.77;;
18983;SDS011;9626;52.552;13.436;2022-10-16T12:11:56;0.90;;;0.80;;
18983;SDS011;9626;52.552;13.436;2022-10-16T12:19:56;0.70;;;0.57;;
18983;SDS011;9626;52.552;13.436;2022-10-16T12:22:29;1.63;;;1.00;;
18983;SDS011;9626;52.552;13.436;2022-10-16T12:24:56;0.80;;;0.60;;
18983;SDS011;9626;52.552;13.436;2022-10-16T12:27:24;0.82;;;0.52;;
18983;SDS011;9626;52.552;13.436;2022-10-16T12:29:57;1.53;;;0.93;;
18983;SDS011;9626;52.552;13.436;2022-10-16T12:32:27;1.38;;;0.60;;
18983;SDS011;9626;52.552;13.436;2022-10-16T12:34:55;0.67;;;0.67;;
18983;SDS011;9626;52.552;13.436;2022-10-16T12:37:24;0.60;;;0.50;;
18983;SDS011;9626;52.552;13.436;2022-10-16T12:39:53;0.43;;;0.40;;
18983;SDS011;9626;52.552;13.436;2022-10-16T12:44:52;0.80;;;0.60;;
18983;SDS011;9626;52.552;13.436;2022-10-16T12:49:57;2.22;;;0.50;;
18983;SDS011;9626;52.552;13.436;2022-10-16T12:52:25;1.75;;;0.50;;
18983;SDS011;9626;52.552;13.436;2022-10-16T12:54:50;1.52;;;0.45;;
18983;SDS011;9626;52.552;13.436;2022-10-16T12:59:53;0.70;;;0.70;;
18983;SDS011;9626;52.552;13.436;2022-10-16T13:14:16;0.93;;;0.60;;
18983;SDS011;9626;52.552;13.436;2022-10-16T13:22:48;0.98;;;0.63;;
18983;SDS011;9626;52.552;13.436;2022-10-16T13:26:18;0.75;;;0.70;;
18983;SDS011;9626;52.552;13.436;2022-10-16T13:28:40;4.25;;;0.73;;
18983;SDS011;9626;52.552;13.436;2022-10-16T13:31:10;2.88;;;0.70;;
18983;SDS011;9626;52.552;13.436;2022-10-16T13:33:43;0.77;;;0.57;;
18983;SDS011;9626;52.552;13.436;2022-10-16T13:36:20;0.68;;;0.68;;
18983;SDS011;9626;52.552;13.436;2022-10-16T13:39:13;1.02;;;1.00;;
18983;SDS011;9626;52.552;13.436;2022-10-16T13:41:42;0.60;;;0.60;;
18983;SDS011;9626;52.552;13.436;2022-10-16T13:44:12;0.70;;;0.70;;
18983;SDS011;9626;52.552;13.436;2022-10-16T13:46:43;2.50;;;0.77;;
18983;SDS011;9626;52.552;13.436;2022-10-16T13:49:13;5.97;;;1.73;;
18983;SDS011;9626;52.552;13.436;2022-10-16T13:51:41;0.88;;;0.63;;
18983;SDS011;9626;52.552;13.436;2022-10-16T13:54:09;0.70;;;0.63;;
18983;SDS011;9626;52.552;13.436;2022-10-16T13:56:38;1.17;;;0.63;;
18983;SDS011;9626;52.552;13.436;2022-10-16T13:59:05;2.38;;;0.68;;
18983;SDS011;9626;52.552;13.436;2022-10-16T14:01:40;1.13;;;0.70;;
18983;SDS011;9626;52.552;13.436;2022-10-16T14:04:08;1.45;;;0.65;;
18983;SDS011;9626;52.552;13.436;2022-10-16T14:06:40;0.95;;;0.60;;
18983;SDS011;9626;52.552;13.436;2022-10-16T14:09:08;0.95;;;0.40;;
18983;SDS011;9626;52.552;13.436;2022-10-16T14:11:51;0.85;;;0.65;;
18983;SDS011;9626;52.552;13.436;2022-10-16T14:14:20;1.63;;;0.65;;
18983;SDS011;9626;52.552;13.436;2022-10-16T14:16:46;2.47;;;0.70;;
18983;SDS011;9626;52.552;13.436;2022-10-16T14:19:15;0.57;;;0.55;;
18983;SDS011;9626;52.552;13.436;2022-10-16T14:21:43;0.70;;;0.70;;
18983;SDS011;9626;52.552;13.436;2022-10-16T14:32:39;0.70;;;0.52;;
18983;SDS011;9626;52.552;13.436;2022-10-16T14:35:21;0.90;;;0.70;;
18983;SDS011;9626;52.552;13.436;2022-10-16T14:37:53;1.75;;;0.77;;
18983;SDS011;9626;52.552;13.436;2022-10-16T14:40:22;0.65;;;0.52;;
18983;SDS011;9626;52.552;13.436;2022-10-16T14:42:50;2.35;;;1.58;;
18983;SDS011;9626;52.552;13.436;2022-10-16T14:45:23;2.78;;;1.20;;
18983;SDS011;9626;52.552;13.436;2022-10-16T14:47:53;0.65;;;0.65;;
18983;SDS011;9626;52.552;13.436;2022-10-16T14:50:21;1.23;;;1.10;;
18983;SDS011;9626;52.552;13.436;2022-10-16T14:52:47;1.05;;;0.63;;
18983;SDS011;9626;52.552;13.436;2022-10-16T14:55:13;0.88;;;0.68;;
18983;SDS011;9626;52.552;13.436;2022-10-16T14:57:39;0.73;;;0.63;;
18983;SDS011;9626;52.552;13.436;2022-10-16T15:00:23;1.60;;;1.20;;
18983;SDS011;9626;52.552;13.436;2022-10-16T15:02:49;1.50;;;0.90;;
18983;SDS011;9626;52.552;13.436;2022-10-16T15:05:22;1.70;;;0.68;;
18983;SDS011;9626;52.552;13.436;2022-10-16T15:07:51;0.70;;;0.65;;
18983;SDS011;9626;52.552;13.436;2022-10-16T15:10:18;1.33;;;0.80;;
18983;SDS011;9626;52.552;13.436;2022-10-16T15:12:46;3.70;;;0.88;;
18983;SDS011;9626;52.552;13.436;2022-10-16T15:15:15;1.80;;;0.70;;
18983;SDS011;9626;52.552;13.436;2022-10-16T15:17:52;0.82;;;0.70;;
18983;SDS011;9626;52.552;13.436;2022-10-16T15:20:21;4.93;;;0.68;;
18983;SDS011;9626;52.552;13.436;2022-10-16T15:22:47;0.98;;;0.82;;
18983;SDS011;9626;52.552;13.436;2022-10-16T15:25:27;1.65;;;0.77;;
18983;SDS011;9626;52.552;13.436;2022-10-16T15:27:56;1.67;;;0.75;;
18983;SDS011;9626;52.552;13.436;2022-10-16T15:30:21;0.73;;;0.70;;
18983;SDS011;9626;52.552;13.436;2022-10-16T15:32:47;1.08;;;0.90;;
18983;SDS011;9626;52.552;13.436;2022-10-16T15:35:13;1.67;;;0.70;;
18983;SDS011;9626;52.552;13.436;2022-10-16T15:37:39;0.95;;;0.70;;
18983;SDS011;9626;52.552;13.436;2022-10-16T15:40:05;1.75;;;0.90;;
18983;SDS011;9626;52.552;13.436;2022-10-16T15:42:31;1.33;;;0.70;;
18983;SDS011;9626;52.552;13.436;2022-10-16T15:44:56;1.10;;;0.90;;
18983;SDS011;9626;52.552;13.436;2022-10-16T15:47:22;1.53;;;1.00;;
18983;SDS011;9626;52.552;13.436;2022-10-16T15:49:47;1.20;;;0.80;;
18983;SDS011;9626;52.552;13.436;2022-10-16T15:52:13;1.50;;;0.80;;
18983;SDS011;9626;52.552;13.436;2022-10-16T15:54:38;1.63;;;0.90;;
18983;SDS011;9626;52.552;13.436;2022-10-16T15:57:04;1.10;;;1.00;;
18983;SDS011;9626;52.552;13.436;2022-10-16T15:59:30;1.70;;;0.97;;
18983;SDS011;9626;52.552;13.436;2022-10-16T16:01:55;2.23;;;1.30;;
18983;SDS011;9626;52.552;13.436;2022-10-16T16:04:21;1.40;;;1.20;;
18983;SDS011;9626;52.552;13.436;2022-10-16T16:06:46;2.20;;;1.10;;
18983;SDS011;9626;52.552;13.436;2022-10-16T16:09:12;2.93;;;1.10;;
18983;SDS011;9626;52.552;13.436;2022-10-16T16:11:39;3.73;;;1.40;;
18983;SDS011;9626;52.552;13.436;2022-10-16T16:14:05;3.63;;;1.37;;
18983;SDS011;9626;52.552;13.436;2022-10-16T16:16:31;1.80;;;1.10;;
18983;SDS011;9626;52.552;13.436;2022-10-16T16:19:03;1.57;;;1.40;;
18983;SDS011;9626;52.552;13.436;2022-10-16T16:21:29;3.63;;;1.50;;
18983;SDS011;9626;52.552;13.436;2022-10-16T16:23:55;3.03;;;1.53;;
18983;SDS011;9626;52.552;13.436;2022-10-16T16:26:24;1.50;;;1.40;;
18983;SDS011;9626;52.552;13.436;2022-10-16T16:28:53;2.30;;;1.70;;
18983;SDS011;9626;52.552;13.436;2022-10-16T16:31:20;2.57;;;1.70;;
18983;SDS011;9626;52.552;13.436;2022-10-16T16:33:50;4.37;;;1.80;;
18983;SDS011;9626;52.552;13.436;2022-10-16T16:36:16;3.20;;;1.50;;
18983;SDS011;9626;52.552;13.436;2022-10-16T16:38:43;3.03;;;1.70;;
18983;SDS011;9626;52.552;13.436;2022-10-16T16:41:17;3.17;;;1.63;;
18983;SDS011;9626;52.552;13.436;2022-10-16T16:43:47;2.67;;;1.83;;
18983;SDS011;9626;52.552;13.436;2022-10-16T16:46:13;2.67;;;1.90;;
18983;SDS011;9626;52.552;13.436;2022-10-16T16:48:40;4.00;;;1.53;;
18983;SDS011;9626;52.552;13.436;2022-10-16T16:51:10;2.47;;;1.73;;
18983;SDS011;9626;52.552;13.436;2022-10-16T16:53:41;3.77;;;1.80;;
18983;SDS011;9626;52.552;13.436;2022-10-16T16:56:08;2.43;;;1.80;;
18983;SDS011;9626;52.552;13.436;2022-10-16T16:58:34;6.43;;;1.80;;
18983;SDS011;9626;52.552;13.436;2022-10-16T17:01:00;1.60;;;1.50;;
18983;SDS011;9626;52.552;13.436;2022-10-16T17:03:27;4.63;;;2.07;;
18983;SDS011;9626;52.552;13.436;2022-10-16T17:06:00;2.37;;;2.07;;
18983;SDS011;9626;52.552;13.436;2022-10-16T17:08:28;3.00;;;1.90;;
18983;SDS011;9626;52.552;13.436;2022-10-16T17:10:54;3.67;;;2.30;;
18983;SDS011;9626;52.552;13.436;2022-10-16T17:13:21;3.87;;;2.10;;